Time;durP1;ratioP1;P1;durP2;ratioP2;P2;SDS_P1;SDS_P2;PMS_P1;PMS_P2;Temp;Humidity;BMP_temperature;BMP_pressure;BME280_temperature;BME280_humidity;BME280_pressure;Samples;Min_cycle;Max_cycle;Signal;HPM_P1;HPM_P2
2023/06/24 00:00:33;;;;;;;0.53;0.53;;;;;;;13.28;nan;101264.25;4972716;28;20206;-82
2023/06/24 00:03:01;;;;;;;1.03;0.50;;;;;;;13.29;nan;101267.81;4972382;28;20317;-82
2023/06/24 00:05:27;;;;;;;0.00;0.00;;;;;;;13.33;nan;101264.16;4972847;28;20229;-82
2023/06/24 00:07:52;;;;;;;0.50;0.50;;;;;;;13.31;nan;101260.09;4971223;29;20206;-81
2023/06/24 00:10:18;;;;;;;0.30;0.30;;;;;;;13.26;nan;101255.50;4971837;28;20285;-82
2023/06/24 00:12:45;;;;;;;8.67;1.63;;;;;;;13.26;nan;101250.03;4972406;28;20198;-81
2023/06/24 00:15:10;;;;;;;0.10;0.10;;;;;;;13.26;nan;101252.78;4972961;28;20193;-81
2023/06/24 00:17:36;;;;;;;0.30;0.30;;;;;;;13.27;nan;101239.84;4972852;29;20266;-81
2023/06/24 00:20:04;;;;;;;0.60;0.60;;;;;;;13.20;nan;101258.69;4972060;28;20206;-82
2023/06/24 00:22:29;;;;;;;0.00;0.00;;;;;;;13.24;nan;101254.22;4970157;28;20212;-81
2023/06/24 00:24:55;;;;;;;0.20;0.20;;;;;;;13.33;nan;101258.66;4970435;29;20214;-81
2023/06/24 00:27:20;;;;;;;0.23;0.20;;;;;;;13.31;nan;101249.94;4970967;29;20269;-80
2023/06/24 00:29:45;;;;;;;0.57;0.57;;;;;;;13.28;nan;101257.94;4971957;28;20179;-81
2023/06/24 00:32:10;;;;;;;2.00;0.83;;;;;;;13.23;nan;101256.13;4972281;28;20233;-81
2023/06/24 00:34:36;;;;;;;0.00;0.00;;;;;;;13.15;nan;101256.81;4972146;28;20635;-80
2023/06/24 00:37:03;;;;;;;0.27;0.27;;;;;;;13.13;nan;101263.75;4971090;29;20201;-80
2023/06/24 00:39:28;;;;;;;0.80;0.67;;;;;;;13.11;nan;101256.63;4973003;29;20201;-80
2023/06/24 00:41:53;;;;;;;0.67;0.63;;;;;;;13.01;nan;101264.28;4988596;28;20210;-81
2023/06/24 00:44:19;;;;;;;0.20;0.20;;;;;;;12.98;nan;101262.97;4978801;28;20190;-80
2023/06/24 00:46:45;;;;;;;0.00;0.00;;;;;;;12.98;nan;101264.91;4973742;28;20189;-80
2023/06/24 00:49:15;;;;;;;0.40;0.40;;;;;;;12.99;nan;101263.78;4971855;29;20182;-81
2023/06/24 00:51:50;;;;;;;0.40;0.40;;;;;;;13.03;nan;101259.31;4973195;28;20273;-80
2023/06/24 00:54:16;;;;;;;1.27;1.17;;;;;;;12.94;nan;101270.19;4972174;29;20627;-80
2023/06/24 00:56:43;;;;;;;0.40;0.40;;;;;;;12.94;nan;101272.94;4971926;29;20253;-80
2023/06/24 00:59:12;;;;;;;0.27;0.27;;;;;;;12.93;nan;101256.78;4972879;28;20209;-80
2023/06/24 01:01:37;;;;;;;1.37;1.27;;;;;;;12.91;nan;101262.59;4967493;28;20210;-81
2023/06/24 01:04:03;;;;;;;0.30;0.20;;;;;;;12.81;nan;101260.84;4971766;29;20191;-80
2023/06/24 01:06:29;;;;;;;2.33;0.83;;;;;;;12.82;nan;101257.00;4971782;29;20182;-81
2023/06/24 01:08:57;;;;;;;0.83;0.83;;;;;;;12.82;nan;101258.94;4971752;28;20194;-81
2023/06/24 01:11:23;;;;;;;0.10;0.10;;;;;;;12.79;nan;101263.09;4970079;28;20214;-81
2023/06/24 01:13:49;;;;;;;0.10;0.10;;;;;;;12.81;nan;101262.78;4970283;28;20189;-81
2023/06/24 01:16:25;;;;;;;0.80;0.80;;;;;;;12.81;nan;101262.78;4985520;28;20250;-81
2023/06/24 01:18:58;;;;;;;0.30;0.30;;;;;;;12.69;nan;101273.44;4968946;28;20237;-81
2023/06/24 01:22:21;;;;;;;0.57;0.50;;;;;;;12.63;nan;101272.75;4970064;28;20225;-81
2023/06/24 01:24:48;;;;;;;0.30;0.30;;;;;;;12.50;nan;101274.38;4950274;29;20203;-82
2023/06/24 01:27:41;;;;;;;0.07;0.07;;;;;;;12.56;nan;101275.06;4964121;29;20186;-80
2023/06/24 01:30:17;;;;;;;0.80;0.80;;;;;;;12.53;nan;101278.44;4963376;28;20182;-82
2023/06/24 01:32:47;;;;;;;0.30;0.30;;;;;;;12.43;nan;101273.13;4964028;29;20253;-82
2023/06/24 01:35:20;;;;;;;1.00;1.00;;;;;;;12.45;nan;101277.22;4963430;29;20178;-82
2023/06/24 01:37:48;;;;;;;0.43;0.43;;;;;;;12.44;nan;101280.25;4964808;29;20221;-81
2023/06/24 01:40:27;;;;;;;0.77;0.70;;;;;;;12.48;nan;101273.88;4968683;28;20213;-81
2023/06/24 01:42:54;;;;;;;0.50;0.50;;;;;;;12.43;nan;101268.47;4970205;28;20183;-81
2023/06/24 01:45:25;;;;;;;0.77;0.77;;;;;;;12.44;nan;101272.84;4970209;28;20249;-80
2023/06/24 01:48:08;;;;;;;1.60;1.60;;;;;;;12.44;nan;101277.50;4975678;28;20186;-81
2023/06/24 01:50:36;;;;;;;0.00;0.00;;;;;;;12.44;nan;101275.59;4964590;28;20203;-80
2023/06/24 01:53:05;;;;;;;0.67;0.60;;;;;;;12.41;nan;101276.19;4967800;29;20186;-81
2023/06/24 01:55:32;;;;;;;0.00;0.00;;;;;;;12.39;nan;101272.94;4968503;28;20190;-81
2023/06/24 01:58:01;;;;;;;0.50;0.50;;;;;;;12.34;nan;101281.25;4968152;28;20186;-81
2023/06/24 02:00:27;;;;;;;0.57;0.57;;;;;;;12.39;nan;101274.88;4966956;28;20221;-80
2023/06/24 02:02:54;;;;;;;0.83;0.83;;;;;;;12.39;nan;101277.59;4968167;28;20210;-80
2023/06/24 02:05:20;;;;;;;0.03;0.03;;;;;;;12.36;nan;101281.78;4968833;28;20186;-81
2023/06/24 02:07:49;;;;;;;0.00;0.00;;;;;;;12.35;nan;101279.34;4967127;28;20193;-82
2023/06/24 02:10:16;;;;;;;0.10;0.10;;;;;;;12.24;nan;101275.97;4962804;28;20186;-82
2023/06/24 02:12:43;;;;;;;1.03;1.00;;;;;;;12.32;nan;101282.69;4963140;28;20206;-81
2023/06/24 02:15:10;;;;;;;0.13;0.13;;;;;;;12.25;nan;101280.31;4984141;28;20599;-82
2023/06/24 02:17:37;;;;;;;0.27;0.27;;;;;;;12.18;nan;101283.47;4968666;28;20217;-81
2023/06/24 02:20:07;;;;;;;0.33;0.33;;;;;;;12.13;nan;101277.25;4967695;28;20216;-82
2023/06/24 02:22:32;;;;;;;0.87;0.87;;;;;;;12.16;nan;101276.69;4969407;28;20602;-82
2023/06/24 02:24:59;;;;;;;1.20;1.20;;;;;;;12.31;nan;101283.81;4968470;29;20194;-81
2023/06/24 02:27:24;;;;;;;0.30;0.30;;;;;;;12.25;nan;101268.56;4969493;28;20566;-81
2023/06/24 02:29:51;;;;;;;0.10;0.10;;;;;;;12.29;nan;101266.81;4966882;29;20178;-81
2023/06/24 02:32:16;;;;;;;0.97;0.97;;;;;;;12.46;nan;101273.38;4968444;28;20217;-81
2023/06/24 02:34:42;;;;;;;0.00;0.00;;;;;;;12.42;nan;101274.25;4976179;28;20209;-82
2023/06/24 02:37:08;;;;;;;2.07;2.00;;;;;;;12.30;nan;101268.47;4968031;28;20719;-82
2023/06/24 02:39:33;;;;;;;0.33;0.33;;;;;;;12.26;nan;101268.25;4968217;28;20206;-82
2023/06/24 02:41:59;;;;;;;0.70;0.70;;;;;;;12.39;nan;101270.19;4968300;28;20210;-81
2023/06/24 02:44:24;;;;;;;0.33;0.33;;;;;;;12.39;nan;101272.94;4968319;28;20193;-82
2023/06/24 02:46:51;;;;;;;0.00;0.00;;;;;;;12.41;nan;101273.44;4967739;28;20186;-82
2023/06/24 02:49:18;;;;;;;0.60;0.60;;;;;;;12.34;nan;101267.56;4968520;28;20249;-82
2023/06/24 02:51:44;;;;;;;0.87;0.43;;;;;;;12.28;nan;101276.97;4968768;28;20202;-81
2023/06/24 02:54:12;;;;;;;1.50;1.50;;;;;;;12.18;nan;101274.44;4972352;28;20182;-80
2023/06/24 02:56:41;;;;;;;0.63;0.63;;;;;;;12.21;nan;101273.84;4974021;28;20182;-80
2023/06/24 02:59:07;;;;;;;0.00;0.00;;;;;;;12.20;nan;101277.69;4988380;28;20206;-81
2023/06/24 03:01:38;;;;;;;0.00;0.00;;;;;;;12.24;nan;101273.22;4987770;28;20202;-81
2023/06/24 03:04:04;;;;;;;0.00;0.00;;;;;;;12.21;nan;101276.56;4972762;28;20261;-82
2023/06/24 03:06:31;;;;;;;0.00;0.00;;;;;;;12.30;nan;101280.25;4970535;28;20336;-81
2023/06/24 03:08:57;;;;;;;0.87;0.87;;;;;;;12.43;nan;101286.84;4969140;28;20186;-81
2023/06/24 03:11:22;;;;;;;0.63;0.63;;;;;;;12.52;nan;101288.59;4974265;28;20209;-81
2023/06/24 03:13:48;;;;;;;0.00;0.00;;;;;;;12.62;nan;101284.84;4967381;28;20190;-81
2023/06/24 03:16:13;;;;;;;0.00;0.00;;;;;;;12.70;nan;101294.28;4967647;28;20197;-82
2023/06/24 03:18:42;;;;;;;1.33;1.33;;;;;;;12.78;nan;101286.16;4965965;29;20194;-82
2023/06/24 03:21:08;;;;;;;0.00;0.00;;;;;;;12.78;nan;101294.38;4965278;28;20233;-81
2023/06/24 03:23:34;;;;;;;0.00;0.00;;;;;;;12.80;nan;101291.34;4967570;28;20214;-82
2023/06/24 03:26:00;;;;;;;0.00;0.00;;;;;;;12.80;nan;101291.34;4964025;28;20203;-82
2023/06/24 03:28:25;;;;;;;0.00;0.00;;;;;;;12.86;nan;101295.59;4964343;28;20218;-82
2023/06/24 03:30:51;;;;;;;1.30;1.20;;;;;;;12.82;nan;101294.56;4963811;28;20210;-82
2023/06/24 03:33:16;;;;;;;0.00;0.00;;;;;;;12.84;nan;101300.56;4963303;29;20191;-81
2023/06/24 03:35:43;;;;;;;0.53;0.53;;;;;;;12.87;nan;101302.69;4963355;29;20198;-82
2023/06/24 03:38:08;;;;;;;0.57;0.57;;;;;;;12.80;nan;101313.28;4964698;28;20195;-82
2023/06/24 03:40:33;;;;;;;0.00;0.00;;;;;;;12.75;nan;101302.41;4963558;28;20302;-81
2023/06/24 03:42:59;;;;;;;0.00;0.00;;;;;;;12.69;nan;101304.44;4962716;29;20214;-82
2023/06/24 03:45:24;;;;;;;0.00;0.00;;;;;;;12.68;nan;101302.81;4964439;28;20189;-82
2023/06/24 03:47:49;;;;;;;0.00;0.00;;;;;;;12.77;nan;101309.22;4966081;29;20210;-81
2023/06/24 03:50:15;;;;;;;0.20;0.20;;;;;;;12.89;nan;101303.22;4983045;28;20179;-80
2023/06/24 03:52:40;;;;;;;0.00;0.00;;;;;;;12.89;nan;101299.66;4985514;28;20202;-81
2023/06/24 03:55:06;;;;;;;0.00;0.00;;;;;;;12.89;nan;101295.00;4975509;28;20181;-83
2023/06/24 03:57:31;;;;;;;0.00;0.00;;;;;;;12.93;nan;101303.41;4976299;29;20193;-82
2023/06/24 03:59:56;;;;;;;0.00;0.00;;;;;;;13.00;nan;101304.63;4973750;29;20219;-81
2023/06/24 04:02:22;;;;;;;0.00;0.00;;;;;;;12.97;nan;101307.16;4976268;28;20224;-82
2023/06/24 04:04:51;;;;;;;0.00;0.00;;;;;;;13.00;nan;101312.84;4975790;28;20190;-82
2023/06/24 04:09:44;;;;;;;0.00;0.00;;;;;;;13.01;nan;101322.69;4954070;29;20225;-75
2023/06/24 04:12:09;;;;;;;0.00;0.00;;;;;;;13.04;nan;101311.13;4938182;29;20211;-75
2023/06/24 04:14:35;;;;;;;0.00;0.00;;;;;;;13.10;nan;101303.59;4936621;29;20192;-75
2023/06/24 04:17:01;;;;;;;0.00;0.00;;;;;;;13.18;nan;101299.31;4936419;29;20193;-76
2023/06/24 04:19:26;;;;;;;0.00;0.00;;;;;;;13.44;nan;101296.84;4936507;29;20557;-76
2023/06/24 04:21:52;;;;;;;0.30;0.30;;;;;;;13.57;nan;101299.53;4936224;29;20211;-76
2023/06/24 04:24:17;;;;;;;0.70;0.67;;;;;;;13.67;nan;101293.81;4936306;29;20187;-75
2023/06/24 04:26:42;;;;;;;0.50;0.50;;;;;;;13.78;nan;101296.31;4936344;29;20239;-76
2023/06/24 04:29:08;;;;;;;0.47;0.47;;;;;;;13.82;nan;101302.81;4935910;29;20179;-75
2023/06/24 04:31:33;;;;;;;0.70;0.70;;;;;;;13.90;nan;101304.81;4936206;29;20246;-75
2023/06/24 04:33:58;;;;;;;0.57;0.57;;;;;;;14.06;nan;101310.75;4936129;29;20184;-76
2023/06/24 04:36:24;;;;;;;0.00;0.00;;;;;;;14.12;nan;101307.53;4936014;29;20695;-75
2023/06/24 04:38:49;;;;;;;0.50;0.20;;;;;;;14.19;nan;101312.59;4935608;29;20187;-75
2023/06/24 04:41:14;;;;;;;0.40;0.40;;;;;;;14.30;nan;101313.94;4935994;29;20574;-76
2023/06/24 04:43:40;;;;;;;0.30;0.30;;;;;;;14.39;nan;101311.25;4935952;29;20184;-76
2023/06/24 04:46:05;;;;;;;0.00;0.00;;;;;;;14.44;nan;101317.44;4935957;29;20183;-76
2023/06/24 04:48:30;;;;;;;0.20;0.20;;;;;;;14.49;nan;101313.75;4935683;29;20187;-75
2023/06/24 04:50:57;;;;;;;0.00;0.00;;;;;;;14.59;nan;101311.53;4950285;28;20254;-76
2023/06/24 04:53:23;;;;;;;0.00;0.00;;;;;;;14.70;nan;101316.75;4935726;29;20183;-75
2023/06/24 04:55:48;;;;;;;2.77;1.10;;;;;;;14.74;nan;101314.97;4935915;29;20187;-75
2023/06/24 04:58:14;;;;;;;0.00;0.00;;;;;;;14.85;nan;101317.13;4935644;29;20246;-75
2023/06/24 05:00:39;;;;;;;0.00;0.00;;;;;;;14.94;nan;101317.19;4935540;29;20676;-75
2023/06/24 05:03:05;;;;;;;0.33;0.33;;;;;;;15.07;nan;101326.44;4935539;29;20188;-75
2023/06/24 05:05:30;;;;;;;0.00;0.00;;;;;;;15.15;nan;101331.13;4935703;29;20187;-76
2023/06/24 05:07:56;;;;;;;0.43;0.43;;;;;;;15.18;nan;101327.75;4935260;29;20194;-76
2023/06/24 05:10:21;;;;;;;0.00;0.00;;;;;;;15.23;nan;101321.28;4935271;29;20206;-75
2023/06/24 05:12:46;;;;;;;0.00;0.00;;;;;;;15.30;nan;101336.19;4935411;29;20640;-76
2023/06/24 05:15:12;;;;;;;0.00;0.00;;;;;;;15.40;nan;101335.88;4935502;29;20179;-76
2023/06/24 05:17:37;;;;;;;0.83;0.23;;;;;;;15.47;nan;101333.47;4950043;29;20187;-76
2023/06/24 05:20:03;;;;;;;0.20;0.20;;;;;;;15.51;nan;101335.59;4934888;29;20206;-76
2023/06/24 05:22:28;;;;;;;0.30;0.30;;;;;;;15.50;nan;101333.97;4935233;29;20198;-75
2023/06/24 05:24:54;;;;;;;3.43;0.67;;;;;;;15.51;nan;101335.59;4935179;29;20193;-76
2023/06/24 05:27:19;;;;;;;0.03;0.03;;;;;;;15.48;nan;101343.38;4935167;29;20179;-76
2023/06/24 05:29:44;;;;;;;0.00;0.00;;;;;;;15.53;nan;101338.81;4949867;29;20637;-75
2023/06/24 05:32:09;;;;;;;0.73;0.73;;;;;;;15.57;nan;101335.09;4935461;29;20206;-76
2023/06/24 05:34:35;;;;;;;4.03;0.57;;;;;;;15.62;nan;101342.41;4935136;29;20210;-76
2023/06/24 05:37:00;;;;;;;0.83;0.67;;;;;;;15.70;nan;101338.88;4949613;29;20274;-76
2023/06/24 05:39:26;;;;;;;5.93;1.87;;;;;;;15.73;nan;101343.72;4934709;29;20214;-76
2023/06/24 05:41:51;;;;;;;0.83;0.83;;;;;;;15.72;nan;101344.84;4934842;29;20206;-75
2023/06/24 05:44:18;;;;;;;1.17;1.17;;;;;;;15.67;nan;101345.84;4949633;29;20194;-75
2023/06/24 05:46:46;;;;;;;0.90;0.90;;;;;;;15.68;nan;101347.44;4935016;29;20183;-75
2023/06/24 05:49:11;;;;;;;0.40;0.27;;;;;;;15.68;nan;101354.91;4934185;29;20197;-75
2023/06/24 05:51:37;;;;;;;1.27;1.27;;;;;;;15.70;nan;101358.97;4934615;29;20746;-75
2023/06/24 05:54:03;;;;;;;1.20;1.10;;;;;;;15.74;nan;101356.34;4934786;29;20187;-75
2023/06/24 05:56:28;;;;;;;1.27;1.17;;;;;;;15.75;nan;101345.00;4934838;29;20187;-75
2023/06/24 05:58:54;;;;;;;2.20;2.10;;;;;;;15.80;nan;101348.75;4934715;29;20187;-75
2023/06/24 06:01:19;;;;;;;1.67;1.53;;;;;;;15.86;nan;101351.00;4934677;29;20297;-75
2023/06/24 06:03:44;;;;;;;0.23;0.23;;;;;;;15.87;nan;101368.34;4934755;29;20187;-75
2023/06/24 06:06:10;;;;;;;3.13;1.40;;;;;;;15.85;nan;101357.66;4934662;29;20175;-75
2023/06/24 06:08:35;;;;;;;0.30;0.30;;;;;;;15.89;nan;101357.81;4934484;29;20202;-75
2023/06/24 06:11:03;;;;;;;1.53;1.43;;;;;;;15.97;nan;101355.06;4934496;29;20222;-75
2023/06/24 06:13:29;;;;;;;0.20;0.20;;;;;;;16.08;nan;101350.03;4934755;29;20548;-75
2023/06/24 06:15:55;;;;;;;0.17;0.17;;;;;;;16.15;nan;101350.34;4934591;29;20665;-75
2023/06/24 06:18:21;;;;;;;0.13;0.13;;;;;;;16.25;nan;101350.00;4949121;29;20193;-75
2023/06/24 06:20:46;;;;;;;1.30;1.20;;;;;;;16.29;nan;101347.41;4934263;29;20210;-75
2023/06/24 06:23:11;;;;;;;1.63;1.53;;;;;;;16.34;nan;101355.50;4949287;29;20250;-75
2023/06/24 06:25:38;;;;;;;0.77;0.77;;;;;;;16.39;nan;101351.75;4949280;29;20191;-75
2023/06/24 06:28:03;;;;;;;0.23;0.23;;;;;;;16.47;nan;101351.72;4934418;29;20654;-75
2023/06/24 06:30:29;;;;;;;1.03;0.67;;;;;;;16.56;nan;101347.00;4934311;29;20206;-75
2023/06/24 06:32:54;;;;;;;1.53;1.43;;;;;;;16.66;nan;101352.16;4934828;29;20262;-76
2023/06/24 06:35:19;;;;;;;0.17;0.17;;;;;;;16.68;nan;101348.31;4934381;29;20187;-75
2023/06/24 06:37:47;;;;;;;0.07;0.07;;;;;;;16.80;nan;101351.19;4933116;29;20183;-75
2023/06/24 06:40:13;;;;;;;0.53;0.53;;;;;;;16.87;nan;101351.47;4933947;29;20258;-75
2023/06/24 06:42:38;;;;;;;0.00;0.00;;;;;;;17.02;nan;101345.38;4934434;29;20195;-75
2023/06/24 06:45:04;;;;;;;0.10;0.10;;;;;;;17.13;nan;101351.34;4934667;29;20199;-76
2023/06/24 06:47:29;;;;;;;0.30;0.20;;;;;;;17.21;nan;101348.53;4934765;29;20199;-75
2023/06/24 06:49:54;;;;;;;2.63;2.53;;;;;;;17.21;nan;101340.25;4933896;29;20182;-75
2023/06/24 06:52:20;;;;;;;0.80;0.60;;;;;;;17.24;nan;101347.88;4934235;29;20210;-76
2023/06/24 06:54:45;;;;;;;0.70;0.70;;;;;;;17.27;nan;101345.56;4934061;29;20226;-76
2023/06/24 06:57:10;;;;;;;0.73;0.63;;;;;;;17.38;nan;101349.56;4934359;29;20183;-76
2023/06/24 06:59:36;;;;;;;0.40;0.40;;;;;;;17.48;nan;101340.88;4933904;29;20203;-75
2023/06/24 07:02:01;;;;;;;1.07;1.07;;;;;;;17.56;nan;101337.25;4937602;29;20218;-75
2023/06/24 07:04:26;;;;;;;3.93;0.90;;;;;;;17.66;nan;101345.13;4938044;29;20190;-75
2023/06/24 07:06:52;;;;;;;0.33;0.33;;;;;;;17.74;nan;101352.56;4937656;29;20179;-75
2023/06/24 07:09:17;;;;;;;0.23;0.23;;;;;;;17.76;nan;101338.41;4937442;29;20567;-75
2023/06/24 07:11:43;;;;;;;0.50;0.50;;;;;;;17.86;nan;101343.53;4952311;29;20206;-75
2023/06/24 07:14:08;;;;;;;0.73;0.73;;;;;;;17.94;nan;101339.06;4952301;29;20660;-75
2023/06/24 07:16:34;;;;;;;0.03;0.03;;;;;;;17.98;nan;101332.53;4937637;29;20179;-75
2023/06/24 07:18:59;;;;;;;2.53;1.07;;;;;;;18.08;nan;101332.13;4951862;29;20202;-75
2023/06/24 07:21:24;;;;;;;1.23;1.07;;;;;;;18.15;nan;101334.31;4937416;29;20656;-75
2023/06/24 07:23:50;;;;;;;0.57;0.40;;;;;;;18.26;nan;101331.94;4937328;29;20183;-75
2023/06/24 07:26:15;;;;;;;0.87;0.87;;;;;;;18.35;nan;101327.91;4937460;29;20183;-75
2023/06/24 07:28:41;;;;;;;0.77;0.63;;;;;;;18.47;nan;101329.09;4937087;29;20185;-75
2023/06/24 07:31:07;;;;;;;1.97;1.83;;;;;;;18.49;nan;101330.34;4937255;29;20350;-75
2023/06/24 07:33:33;;;;;;;0.00;0.00;;;;;;;18.50;nan;101331.16;4937370;29;20695;-75
2023/06/24 07:35:58;;;;;;;0.70;0.70;;;;;;;18.60;nan;101334.31;4951837;29;20205;-75
2023/06/24 07:38:23;;;;;;;6.80;2.03;;;;;;;18.64;nan;101332.47;4936956;29;20198;-75
2023/06/24 07:40:49;;;;;;;0.00;0.00;;;;;;;18.72;nan;101322.47;4936940;29;20235;-75
2023/06/24 07:43:14;;;;;;;1.50;0.33;;;;;;;18.81;nan;101328.72;4937134;29;20644;-76
2023/06/24 07:45:39;;;;;;;0.67;0.67;;;;;;;18.77;nan;101327.78;4937079;29;20279;-75
2023/06/24 07:48:06;;;;;;;2.23;0.70;;;;;;;18.83;nan;101331.94;4936937;29;20195;-75
2023/06/24 07:50:32;;;;;;;0.40;0.40;;;;;;;18.77;nan;101330.53;4937043;29;20199;-75
2023/06/24 07:52:57;;;;;;;0.10;0.10;;;;;;;18.84;nan;101330.78;4935671;29;20213;-75
2023/06/24 07:55:22;;;;;;;0.93;0.53;;;;;;;19.01;nan;101338.88;4936939;29;20183;-75
2023/06/24 07:57:48;;;;;;;0.20;0.20;;;;;;;19.13;nan;101326.97;4936759;29;20660;-75
2023/06/24 08:00:14;;;;;;;0.20;0.20;;;;;;;19.24;nan;101341.13;4951213;29;20247;-75
2023/06/24 08:02:41;;;;;;;0.87;0.80;;;;;;;19.38;nan;101341.59;4936720;29;20187;-76
2023/06/24 08:05:07;;;;;;;0.27;0.27;;;;;;;19.48;nan;101338.34;4935262;29;20198;-75
2023/06/24 08:07:32;;;;;;;0.30;0.30;;;;;;;19.57;nan;101335.47;4936546;29;20187;-76
2023/06/24 08:09:57;;;;;;;0.60;0.60;;;;;;;19.61;nan;101336.38;4950958;29;20223;-75
2023/06/24 08:12:23;;;;;;;0.10;0.10;;;;;;;19.68;nan;101325.50;4950887;28;20226;-75
2023/06/24 08:14:48;;;;;;;0.07;0.07;;;;;;;19.76;nan;101329.28;4936568;29;20652;-75
2023/06/24 08:17:14;;;;;;;0.00;0.00;;;;;;;19.82;nan;101314.84;4951251;29;20641;-75
2023/06/24 08:19:39;;;;;;;0.00;0.00;;;;;;;19.85;nan;101299.44;4936105;29;20207;-75
2023/06/24 08:22:04;;;;;;;1.07;0.97;;;;;;;19.92;nan;101294.88;4936281;29;20631;-75
2023/06/24 08:24:31;;;;;;;0.10;0.10;;;;;;;19.95;nan;101296.16;4936407;29;20191;-75
2023/06/24 08:26:56;;;;;;;0.10;0.10;;;;;;;20.04;nan;101307.91;4936329;29;20183;-76
2023/06/24 08:29:21;;;;;;;0.43;0.43;;;;;;;20.15;nan;101306.22;4936058;29;20190;-75
2023/06/24 08:31:47;;;;;;;0.17;0.17;;;;;;;20.14;nan;101310.16;4950778;29;20211;-75
2023/06/24 08:34:12;;;;;;;0.97;0.83;;;;;;;20.20;nan;101317.06;4950819;29;20238;-75
2023/06/24 08:36:37;;;;;;;0.73;0.67;;;;;;;20.19;nan;101329.31;4950800;29;20245;-75
2023/06/24 08:39:03;;;;;;;0.60;0.60;;;;;;;20.14;nan;101337.91;4935725;29;20222;-75
2023/06/24 08:41:28;;;;;;;1.50;1.40;;;;;;;20.09;nan;101329.84;4936038;29;20218;-75
2023/06/24 08:43:54;;;;;;;0.00;0.00;;;;;;;20.15;nan;101333.19;4934729;29;20617;-75
2023/06/24 08:46:20;;;;;;;0.20;0.20;;;;;;;20.31;nan;101338.75;4936052;29;20190;-75
2023/06/24 08:48:48;;;;;;;0.10;0.10;;;;;;;20.42;nan;101331.56;4935472;29;20262;-75
2023/06/24 08:51:18;;;;;;;1.13;1.13;;;;;;;20.59;nan;101333.97;4935759;29;20559;-75
2023/06/24 08:53:44;;;;;;;1.23;0.73;;;;;;;20.77;nan;101340.78;4935796;29;20190;-76
2023/06/24 08:56:10;;;;;;;0.83;0.50;;;;;;;20.82;nan;101344.44;4935797;29;20187;-76
2023/06/24 08:58:35;;;;;;;1.03;1.03;;;;;;;20.89;nan;101337.13;4935624;29;20191;-75
2023/06/24 09:01:02;;;;;;;0.53;0.53;;;;;;;21.00;nan;101346.53;4935486;29;20214;-75
2023/06/24 09:03:27;;;;;;;0.50;0.50;;;;;;;21.14;nan;101350.81;4935592;29;20662;-76
2023/06/24 09:05:52;;;;;;;0.00;0.00;;;;;;;21.15;nan;101333.78;4935600;29;20184;-76
2023/06/24 09:08:18;;;;;;;0.70;0.70;;;;;;;21.24;nan;101339.13;4935117;29;20203;-76
2023/06/24 09:10:43;;;;;;;4.40;0.70;;;;;;;21.32;nan;101332.59;4935593;29;20200;-76
2023/06/24 09:13:08;;;;;;;1.20;1.10;;;;;;;21.30;nan;101332.97;4935389;29;20242;-76
2023/06/24 09:15:35;;;;;;;1.00;0.47;;;;;;;21.31;nan;101325.44;4935448;29;20183;-76
2023/06/24 09:18:02;;;;;;;0.17;0.17;;;;;;;21.34;nan;101330.25;4935226;29;20183;-76
2023/06/24 09:20:28;;;;;;;0.17;0.10;;;;;;;21.43;nan;101330.06;4934987;29;20238;-76
2023/06/24 09:23:01;;;;;;;0.47;0.47;;;;;;;21.54;nan;101336.63;4934434;29;20187;-76
2023/06/24 09:25:27;;;;;;;1.00;0.67;;;;;;;21.55;nan;101324.34;4935296;29;20199;-76
2023/06/24 09:27:54;;;;;;;0.00;0.00;;;;;;;21.59;nan;101311.34;4935159;29;20188;-76
2023/06/24 09:30:21;;;;;;;0.63;0.50;;;;;;;21.75;nan;101325.19;4934880;29;20661;-76
2023/06/24 09:32:47;;;;;;;0.77;0.67;;;;;;;21.88;nan;101316.31;4935092;29;20677;-76
2023/06/24 09:35:13;;;;;;;0.77;0.77;;;;;;;22.03;nan;101308.25;4949884;29;20187;-76
2023/06/24 09:37:39;;;;;;;0.43;0.43;;;;;;;22.03;nan;101311.84;4935016;29;20221;-76
2023/06/24 09:40:06;;;;;;;0.00;0.00;;;;;;;22.10;nan;101313.97;4934725;29;20684;-76
2023/06/24 09:42:32;;;;;;;0.20;0.03;;;;;;;22.02;nan;101304.66;4935063;29;20191;-76
2023/06/24 09:44:57;;;;;;;0.40;0.40;;;;;;;22.20;nan;101293.88;4933565;29;20280;-76
2023/06/24 09:47:25;;;;;;;0.27;0.27;;;;;;;22.31;nan;101292.13;4934921;29;20246;-76
2023/06/24 09:49:51;;;;;;;0.63;0.63;;;;;;;22.26;nan;101290.41;4934661;29;20413;-76
2023/06/24 09:52:19;;;;;;;0.37;0.37;;;;;;;22.24;nan;101287.19;4934820;29;20209;-76
2023/06/24 09:54:47;;;;;;;0.13;0.13;;;;;;;22.54;nan;101300.44;4934853;29;20269;-76
2023/06/24 09:57:13;;;;;;;0.80;0.80;;;;;;;22.72;nan;101306.34;4934883;29;20193;-76
2023/06/24 09:59:40;;;;;;;0.47;0.47;;;;;;;22.73;nan;101285.66;4934462;29;20293;-76
2023/06/24 10:02:12;;;;;;;0.50;0.50;;;;;;;22.74;nan;101292.84;4934648;29;20216;-76
2023/06/24 10:04:38;;;;;;;0.53;0.53;;;;;;;22.69;nan;101296.72;4934792;29;20187;-76
2023/06/24 10:07:04;;;;;;;0.77;0.77;;;;;;;22.84;nan;101292.22;4949297;29;20284;-76
2023/06/24 10:09:29;;;;;;;1.23;1.13;;;;;;;22.67;nan;101284.34;4949116;29;20218;-76
2023/06/24 10:11:55;;;;;;;1.17;1.17;;;;;;;22.58;nan;101275.47;4934440;29;20204;-76
2023/06/24 10:14:20;;;;;;;0.20;0.20;;;;;;;22.71;nan;101285.19;4934580;29;20188;-76
2023/06/24 10:16:45;;;;;;;0.00;0.00;;;;;;;22.95;nan;101273.69;4934609;29;20187;-76
2023/06/24 10:19:19;;;;;;;0.00;0.00;;;;;;;23.24;nan;101288.84;4934312;29;20297;-76
2023/06/24 10:21:45;;;;;;;0.03;0.03;;;;;;;23.29;nan;101273.75;4934595;29;20214;-76
2023/06/24 10:24:10;;;;;;;0.10;0.10;;;;;;;23.37;nan;101275.47;4934577;29;20577;-76
2023/06/24 10:26:36;;;;;;;0.00;0.00;;;;;;;23.55;nan;101267.31;4934445;29;20183;-76
2023/06/24 10:29:07;;;;;;;0.50;0.50;;;;;;;23.70;nan;101267.13;4934284;29;20186;-76
2023/06/24 10:31:38;;;;;;;0.00;0.00;;;;;;;23.81;nan;101274.84;4934404;29;20546;-76
2023/06/24 10:34:22;;;;;;;0.00;0.00;;;;;;;23.91;nan;101268.59;4935184;29;20206;-76
2023/06/24 10:36:55;;;;;;;0.60;0.60;;;;;;;23.68;nan;101269.50;4938318;29;20194;-76
2023/06/24 10:39:39;;;;;;;0.20;0.20;;;;;;;23.99;nan;101262.69;4952557;29;20612;-76
2023/06/24 10:42:23;;;;;;;1.07;1.07;;;;;;;24.22;nan;101261.72;4938087;29;20224;-76
2023/06/24 10:44:49;;;;;;;0.43;0.43;;;;;;;23.92;nan;101256.22;4938552;29;20697;-76
2023/06/24 10:47:14;;;;;;;0.10;0.10;;;;;;;24.13;nan;101250.84;4938172;29;20641;-76
2023/06/24 10:49:40;;;;;;;0.73;0.47;;;;;;;24.17;nan;101257.28;4937806;29;20183;-76
2023/06/24 10:52:09;;;;;;;0.37;0.33;;;;;;;24.20;nan;101244.53;4937883;29;20214;-76
2023/06/24 10:54:36;;;;;;;0.00;0.00;;;;;;;24.17;nan;101253.69;4938070;29;20194;-76
2023/06/24 10:57:03;;;;;;;0.00;0.00;;;;;;;24.13;nan;101248.06;4937921;29;20195;-76
2023/06/24 10:59:46;;;;;;;0.00;0.00;;;;;;;24.17;nan;101251.72;4937670;29;20270;-76
2023/06/24 11:02:17;;;;;;;0.00;0.00;;;;;;;24.12;nan;101234.47;4937653;29;20203;-76
2023/06/24 11:04:44;;;;;;;0.00;0.00;;;;;;;24.16;nan;101240.91;4952539;29;20197;-76
2023/06/24 11:07:09;;;;;;;1.10;1.03;;;;;;;24.42;nan;101237.97;4937720;29;20204;-76
2023/06/24 11:09:34;;;;;;;0.63;0.50;;;;;;;24.67;nan;101246.56;4937749;29;20190;-76
2023/06/24 11:12:02;;;;;;;0.00;0.00;;;;;;;24.86;nan;101232.31;4937519;29;20305;-76
2023/06/24 11:14:28;;;;;;;2.17;0.93;;;;;;;24.76;nan;101223.88;4937555;29;20187;-76
2023/06/24 11:16:53;;;;;;;0.10;0.10;;;;;;;24.44;nan;101220.81;4937473;29;20198;-76
2023/06/24 11:19:18;;;;;;;0.00;0.00;;;;;;;24.44;nan;101220.81;4937177;29;20215;-76
2023/06/24 11:21:44;;;;;;;0.00;0.00;;;;;;;24.66;nan;101222.59;4937446;29;20771;-76
2023/06/24 11:24:10;;;;;;;0.60;0.60;;;;;;;24.71;nan;101215.84;4937367;29;20256;-76
2023/06/24 11:26:36;;;;;;;2.23;2.10;;;;;;;25.07;nan;101233.66;4937493;29;20187;-76
2023/06/24 11:29:09;;;;;;;10.13;2.47;;;;;;;24.75;nan;101216.69;4936990;29;20189;-76
2023/06/24 11:31:35;;;;;;;3.07;2.83;;;;;;;24.84;nan;101229.09;4937268;29;20246;-76
2023/06/24 11:34:00;;;;;;;1.00;0.90;;;;;;;24.99;nan;101234.78;4937202;29;20215;-76
2023/06/24 11:36:26;;;;;;;0.53;0.53;;;;;;;25.00;nan;101228.00;4937338;29;20199;-76
2023/06/24 11:38:51;;;;;;;0.10;0.10;;;;;;;25.28;nan;101214.19;4936910;29;20318;-76
2023/06/24 11:41:20;;;;;;;0.00;0.00;;;;;;;25.02;nan;101200.47;4935906;29;20266;-76